Time;durP1;ratioP1;P1;durP2;ratioP2;P2;SDS_P1;SDS_P2;PMS_P1;PMS_P2;Temp;Humidity;BMP_temperature;BMP_pressure;BME280_temperature;BME280_humidity;BME280_pressure;Samples;Min_cycle;Max_cycle;Signal;HPM_P1;HPM_P2
2021/04/05 00:01:42;;;;;;;58.63;37.67;;;;;;;5.47;85.56;100038.22;5181234;28;20033;-79
2021/04/05 00:04:12;;;;;;;61.65;38.40;;;;;;;5.45;86.12;100045.19;5184696;28;20036;-79
2021/04/05 00:06:43;;;;;;;63.60;38.60;;;;;;;5.47;85.64;100050.31;5187749;28;20508;-79
2021/04/05 00:09:13;;;;;;;61.35;38.47;;;;;;;5.34;86.24;100035.94;5192547;28;20411;-78
2021/04/05 00:11:43;;;;;;;62.20;39.50;;;;;;;5.29;86.50;100026.59;5187847;28;20109;-79
2021/04/05 00:14:14;;;;;;;67.32;40.72;;;;;;;5.38;86.27;100027.22;5183899;28;20049;-79
2021/04/05 00:16:44;;;;;;;63.40;39.22;;;;;;;5.33;86.12;100016.09;5184557;28;20109;-79
2021/04/05 00:19:14;;;;;;;62.05;39.97;;;;;;;5.34;86.89;100009.19;5189061;28;20030;-78
2021/04/05 00:21:45;;;;;;;63.08;39.60;;;;;;;5.20;87.82;99994.00;5192450;28;20021;-79
2021/04/05 00:24:15;;;;;;;65.13;40.65;;;;;;;5.23;87.20;99985.28;5193755;28;20022;-78
2021/04/05 00:26:46;;;;;;;65.10;40.80;;;;;;;5.29;87.04;99975.63;5189649;28;20022;-79
2021/04/05 00:29:16;;;;;;;62.00;38.85;;;;;;;5.20;87.08;99962.06;5184203;28;20025;-79
2021/04/05 00:31:46;;;;;;;64.15;39.97;;;;;;;5.21;86.97;99951.66;5184022;28;20438;-79
2021/04/05 00:34:16;;;;;;;65.15;39.08;;;;;;;5.13;87.50;99957.91;5183064;28;20764;-79
2021/04/05 00:36:47;;;;;;;59.80;39.22;;;;;;;5.09;87.61;99944.19;5166249;28;20049;-81
2021/04/05 00:39:17;;;;;;;67.03;41.55;;;;;;;5.21;87.53;99925.75;5184147;28;20045;-80
2021/04/05 00:41:47;;;;;;;65.38;40.13;;;;;;;5.24;87.72;99919.63;5167099;28;20476;-81
2021/04/05 00:44:18;;;;;;;63.70;40.13;;;;;;;5.20;87.73;99903.34;5184113;28;20029;-80
2021/04/05 00:46:48;;;;;;;68.20;39.83;;;;;;;5.21;87.92;99905.06;5179433;28;20061;-80
2021/04/05 00:49:19;;;;;;;63.30;38.80;;;;;;;5.27;86.92;99904.88;5166614;28;20044;-80
2021/04/05 00:51:49;;;;;;;59.00;38.78;;;;;;;5.26;87.05;99897.13;5181868;28;20034;-80
2021/04/05 00:54:21;;;;;;;66.88;39.35;;;;;;;5.20;87.79;99871.41;5169732;28;22160;-80
2021/04/05 00:56:52;;;;;;;60.45;37.80;;;;;;;5.22;87.76;99865.31;5181172;28;20029;-80
2021/04/05 00:59:22;;;;;;;58.70;36.40;;;;;;;5.23;87.47;99861.81;5169375;28;20114;-81
2021/04/05 01:01:53;;;;;;;56.65;35.72;;;;;;;5.32;87.51;99845.19;5182868;28;20029;-80
2021/04/05 01:04:23;;;;;;;63.55;35.53;;;;;;;5.47;86.27;99840.44;5165399;28;20060;-79
2021/04/05 01:06:53;;;;;;;59.42;35.45;;;;;;;5.35;87.25;99838.19;5186792;28;20022;-79
2021/04/05 01:09:23;;;;;;;58.47;34.17;;;;;;;5.29;87.17;99824.56;5187655;28;20416;-78
2021/04/05 01:11:54;;;;;;;58.65;33.25;;;;;;;5.40;86.84;99815.59;5183795;28;20033;-78
2021/04/05 01:14:24;;;;;;;58.53;34.38;;;;;;;5.50;86.16;99809.28;5183413;28;20025;-78
2021/04/05 01:16:54;;;;;;;67.60;33.47;;;;;;;5.47;86.50;99793.81;5183627;28;20592;-78
2021/04/05 01:19:24;;;;;;;56.20;32.28;;;;;;;5.38;86.92;99793.22;5181333;28;20030;-78
2021/04/05 01:21:55;;;;;;;56.67;31.65;;;;;;;5.35;86.97;99783.78;5183089;28;20655;-79
2021/04/05 01:24:26;;;;;;;54.40;30.77;;;;;;;5.42;86.78;99782.72;5190723;28;20029;-79
2021/04/05 01:26:57;;;;;;;54.25;31.10;;;;;;;5.50;86.15;99780.75;5186720;28;20117;-78
2021/04/05 01:29:27;;;;;;;55.10;31.83;;;;;;;5.48;86.33;99775.66;5180780;28;20124;-79
2021/04/05 01:31:58;;;;;;;54.70;31.25;;;;;;;5.53;86.25;99762.53;5182740;28;20057;-79
2021/04/05 01:34:28;;;;;;;52.10;30.05;;;;;;;5.48;86.28;99749.75;5182308;28;20042;-79
2021/04/05 01:36:59;;;;;;;55.92;28.55;;;;;;;5.46;86.36;99725.63;5184098;28;20033;-79
2021/04/05 01:39:33;;;;;;;48.03;27.65;;;;;;;5.36;86.97;99720.72;5182139;28;20025;-79
2021/04/05 01:42:05;;;;;;;51.25;28.85;;;;;;;5.45;86.46;99720.47;5175956;28;20049;-79
2021/04/05 01:44:37;;;;;;;48.53;27.67;;;;;;;5.46;86.78;99712.66;5182443;28;20033;-78
2021/04/05 01:47:10;;;;;;;52.67;29.55;;;;;;;5.39;87.03;99692.16;5182636;28;20029;-78
2021/04/05 01:49:41;;;;;;;50.05;28.35;;;;;;;5.45;86.43;99676.44;5183499;28;20042;-78
2021/04/05 01:52:13;;;;;;;54.80;28.20;;;;;;;5.45;86.50;99672.09;5183033;28;20036;-78
2021/04/05 01:54:43;;;;;;;59.33;27.83;;;;;;;5.40;86.89;99665.34;5194927;28;20033;-79
2021/04/05 01:57:14;;;;;;;45.88;28.00;;;;;;;5.43;86.92;99662.66;5192014;28;20385;-80
2021/04/05 01:59:44;;;;;;;48.40;26.35;;;;;;;5.48;86.61;99658.19;5182179;28;20022;-80
2021/04/05 02:02:14;;;;;;;49.45;28.73;;;;;;;5.62;85.71;99661.22;5186037;28;20025;-80
2021/04/05 02:04:45;;;;;;;45.47;26.83;;;;;;;5.67;85.96;99641.19;5192277;28;20392;-79
2021/04/05 02:07:15;;;;;;;49.33;27.15;;;;;;;5.65;86.19;99635.22;5191590;28;20029;-80
2021/04/05 02:09:45;;;;;;;53.65;27.73;;;;;;;5.81;85.38;99615.72;5190033;28;20488;-79
2021/04/05 02:12:15;;;;;;;51.25;27.13;;;;;;;5.75;85.86;99605.53;5184255;28;20032;-80
2021/04/05 02:14:46;;;;;;;48.17;27.15;;;;;;;5.80;85.21;99594.16;5183773;28;20033;-79
2021/04/05 02:17:18;;;;;;;53.17;28.08;;;;;;;5.80;85.43;99588.97;5183912;28;20037;-79
2021/04/05 02:19:48;;;;;;;55.55;28.95;;;;;;;5.91;85.83;99583.44;5183909;28;20025;-80
2021/04/05 02:22:22;;;;;;;56.35;28.52;;;;;;;5.85;85.52;99579.28;5183231;28;20040;-79
2021/04/05 02:24:53;;;;;;;53.45;27.55;;;;;;;5.67;86.52;99576.41;5189358;28;20029;-79
2021/04/05 02:27:23;;;;;;;49.65;27.77;;;;;;;5.71;86.53;99565.06;5185946;28;20029;-80
2021/04/05 02:29:54;;;;;;;49.67;26.95;;;;;;;5.67;86.53;99573.81;5184862;28;20321;-79
2021/04/05 02:32:24;;;;;;;48.97;26.10;;;;;;;5.68;85.74;99570.31;5183966;28;20447;-79
2021/04/05 02:34:55;;;;;;;46.40;26.20;;;;;;;5.71;85.82;99559.88;5183491;28;20051;-80
2021/04/05 02:37:25;;;;;;;50.10;26.15;;;;;;;5.74;85.02;99565.78;5180738;28;20026;-80
2021/04/05 02:39:56;;;;;;;52.63;26.75;;;;;;;5.73;85.78;99556.31;5183265;28;20032;-79
2021/04/05 02:42:26;;;;;;;50.45;26.08;;;;;;;5.67;85.62;99550.47;5184662;28;20045;-80
2021/04/05 02:44:57;;;;;;;50.58;26.42;;;;;;;5.74;85.21;99542.47;5186084;28;20028;-80
2021/04/05 02:47:27;;;;;;;48.63;26.20;;;;;;;5.72;85.71;99536.47;5184654;28;20053;-79
2021/04/05 02:49:58;;;;;;;50.85;26.73;;;;;;;5.71;85.80;99527.03;5185309;28;20061;-79
2021/04/05 02:52:28;;;;;;;56.22;28.35;;;;;;;5.64;86.28;99532.44;5185884;28;20496;-79
2021/04/05 02:54:59;;;;;;;48.40;26.08;;;;;;;5.83;85.76;99528.38;5192969;28;20033;-79
2021/04/05 02:57:32;;;;;;;55.35;26.60;;;;;;;5.86;85.39;99512.72;5182335;28;20037;-79
2021/04/05 03:00:12;;;;;;;48.10;27.02;;;;;;;5.95;85.47;99513.25;5181808;28;20026;-78
2021/04/05 03:02:45;;;;;;;60.35;27.73;;;;;;;5.95;85.26;99507.25;5182350;28;20117;-79
2021/04/05 03:05:18;;;;;;;50.28;26.33;;;;;;;5.97;85.00;99495.06;5181473;28;20068;-79
2021/04/05 03:07:50;;;;;;;50.60;26.42;;;;;;;5.98;85.54;99486.38;5189308;28;20078;-78
2021/04/05 03:10:27;;;;;;;49.67;26.27;;;;;;;6.01;85.58;99474.19;5186796;28;20787;-79
2021/04/05 03:12:58;;;;;;;39.33;24.80;;;;;;;5.98;85.09;99473.44;5181488;28;20109;-78
2021/04/05 03:15:29;;;;;;;45.35;25.70;;;;;;;6.03;85.16;99459.41;5178670;28;20030;-78
2021/04/05 03:18:03;;;;;;;46.85;25.70;;;;;;;6.04;84.64;99462.81;5181710;28;20037;-79
2021/04/05 03:20:35;;;;;;;43.53;25.60;;;;;;;6.14;84.79;99459.88;5178951;28;20021;-79
2021/04/05 03:23:06;;;;;;;49.25;25.75;;;;;;;6.18;84.46;99450.22;5164036;28;20484;-78
2021/04/05 03:25:36;;;;;;;45.10;25.20;;;;;;;6.14;84.75;99449.50;5194097;28;20060;-78
2021/04/05 03:28:07;;;;;;;49.63;25.63;;;;;;;6.09;84.59;99441.03;5182830;28;20040;-78
2021/04/05 03:30:42;;;;;;;45.50;25.08;;;;;;;6.27;84.52;99448.16;5181889;28;20373;-79
2021/04/05 03:33:27;;;;;;;47.25;26.02;;;;;;;6.20;84.39;99453.59;5181462;28;20029;-78
2021/04/05 03:36:14;;;;;;;43.42;25.25;;;;;;;6.23;84.55;99438.78;5182044;28;20100;-79
2021/04/05 03:38:45;;;;;;;47.17;25.08;;;;;;;6.24;84.72;99432.69;5194231;28;20033;-78
2021/04/05 03:41:25;;;;;;;42.10;24.63;;;;;;;6.25;84.35;99428.38;5164137;28;20021;-78
2021/04/05 03:44:03;;;;;;;46.13;24.80;;;;;;;6.23;84.67;99414.63;5174816;28;20053;-78
2021/04/05 03:46:38;;;;;;;52.72;25.52;;;;;;;6.28;85.20;99397.13;5181724;28;20026;-80
2021/04/05 03:49:08;;;;;;;46.10;25.33;;;;;;;6.31;84.54;99389.22;5182567;28;20030;-79
2021/04/05 03:51:47;;;;;;;52.07;25.47;;;;;;;6.26;85.30;99386.78;5182008;28;20029;-80
2021/04/05 03:54:20;;;;;;;47.30;24.60;;;;;;;6.38;84.73;99381.16;5191477;28;20280;-79
2021/04/05 03:56:53;;;;;;;49.17;24.75;;;;;;;6.41;85.15;99367.22;5185972;28;20025;-79
2021/04/05 03:59:31;;;;;;;47.80;24.73;;;;;;;6.45;85.01;99366.19;5181784;28;20384;-79
2021/04/05 04:02:07;;;;;;;44.03;24.30;;;;;;;6.48;85.05;99353.09;5181644;28;20499;-78
2021/04/05 04:04:47;;;;;;;;;;;;;;;6.59;85.38;99350.94;5182008;28;20643;-78
2021/04/05 04:07:25;;;;;;;39.60;23.30;;;;;;;6.67;84.86;99335.91;5191922;28;19964;-80
2021/04/05 04:09:57;;;;;;;42.75;23.85;;;;;;;6.69;85.10;99327.16;5189697;28;20083;-79
2021/04/05 04:12:30;;;;;;;45.08;24.63;;;;;;;6.60;86.34;99316.31;5180766;28;20030;-79
2021/04/05 04:15:01;;;;;;;40.28;23.08;;;;;;;6.75;86.08;99326.06;5181432;28;20452;-79
2021/04/05 04:17:37;;;;;;;42.85;24.17;;;;;;;6.73;85.33;99313.16;5181726;28;20034;-78
2021/04/05 04:20:09;;;;;;;;;;;;;;;6.86;85.45;99316.09;5182103;28;20030;-80
2021/04/05 04:22:41;;;;;;;45.05;22.33;;;;;;;6.90;85.43;99302.09;5183085;28;19913;-80
2021/04/05 04:25:12;;;;;;;47.63;23.55;;;;;;;6.94;84.61;99295.84;5191508;28;20060;-79
2021/04/05 04:27:44;;;;;;;42.38;23.45;;;;;;;7.00;84.59;99282.59;5182278;28;20022;-78
2021/04/05 04:30:32;;;;;;;42.83;22.77;;;;;;;6.98;84.71;99271.44;5181325;28;20033;-79
2021/04/05 04:33:05;;;;;;;44.75;22.92;;;;;;;6.92;85.05;99271.72;5165362;28;20705;-79
2021/04/05 04:35:38;;;;;;;43.25;23.42;;;;;;;6.95;84.49;99272.41;5184630;28;20064;-79
2021/04/05 04:38:09;;;;;;;44.03;22.70;;;;;;;6.95;84.63;99277.59;5194530;28;20038;-78
2021/04/05 04:40:39;;;;;;;44.58;23.60;;;;;;;6.91;84.79;99270.84;5187189;28;20100;-80
2021/04/05 04:43:09;;;;;;;46.20;23.25;;;;;;;6.85;85.18;99265.06;5184670;28;20032;-79
2021/04/05 04:45:40;;;;;;;51.53;24.15;;;;;;;6.86;84.87;99256.38;5184572;28;20046;-79
2021/04/05 04:48:11;;;;;;;42.88;23.20;;;;;;;6.89;84.63;99246.72;5188513;28;20038;-79
2021/04/05 04:50:42;;;;;;;49.72;24.42;;;;;;;6.89;85.13;99240.66;5184391;28;20013;-79
2021/04/05 04:53:12;;;;;;;43.78;23.52;;;;;;;6.82;84.93;99247.88;5189114;28;20091;-79
2021/04/05 04:55:43;;;;;;;47.17;24.15;;;;;;;6.79;85.77;99228.97;5183689;28;20036;-78
2021/04/05 04:58:15;;;;;;;44.60;24.10;;;;;;;6.78;85.45;99222.09;5184090;28;20021;-79
2021/04/05 05:00:45;;;;;;;42.83;23.63;;;;;;;6.91;85.72;99225.88;5184155;28;20030;-78
2021/04/05 05:03:17;;;;;;;45.10;23.70;;;;;;;6.86;85.55;99225.22;5183858;28;20170;-79
2021/04/05 05:05:49;;;;;;;44.10;23.88;;;;;;;6.89;85.70;99225.06;5184832;28;20064;-81
2021/04/05 05:08:20;;;;;;;46.45;23.40;;;;;;;6.93;85.89;99222.28;5196523;28;20053;-80
2021/04/05 05:10:53;;;;;;;41.50;22.65;;;;;;;6.97;86.07;99212.63;5186988;28;20057;-82
2021/04/05 05:13:23;;;;;;;41.80;23.08;;;;;;;7.05;85.88;99220.91;5183927;28;20032;-81
2021/04/05 05:15:53;;;;;;;45.80;24.02;;;;;;;7.04;86.05;99219.22;5184676;28;20018;-82
2021/04/05 05:18:25;;;;;;;47.30;23.55;;;;;;;7.05;86.94;99205.34;5184513;28;20108;-81
2021/04/05 05:20:56;;;;;;;46.67;23.63;;;;;;;7.01;86.93;99204.66;5183950;28;20515;-81
2021/04/05 05:23:28;;;;;;;45.08;23.95;;;;;;;7.14;86.63;99189.38;5180070;28;20037;-80
2021/04/05 05:25:59;;;;;;;51.80;24.65;;;;;;;7.13;86.55;99196.28;5178651;28;20037;-80
2021/04/05 05:28:33;;;;;;;45.55;22.92;;;;;;;7.19;86.04;99177.88;5181727;28;20030;-81
2021/04/05 05:31:04;;;;;;;44.42;23.33;;;;;;;7.22;86.77;99184.66;5166648;28;20113;-81
2021/04/05 05:33:35;;;;;;;40.75;21.63;;;;;;;7.27;86.38;99177.53;5183196;28;20121;-81
2021/04/05 05:36:05;;;;;;;45.35;23.45;;;;;;;7.22;86.43;99183.75;5184182;28;20030;-81
2021/04/05 05:38:36;;;;;;;47.63;22.50;;;;;;;7.20;86.73;99165.69;5196610;28;20108;-81
2021/04/05 05:41:15;;;;;;;52.70;22.77;;;;;;;7.28;86.11;99162.72;5185344;28;20034;-80
2021/04/05 05:43:50;;;;;;;39.25;22.25;;;;;;;7.26;86.33;99168.03;5181652;28;20033;-81
2021/04/05 05:46:31;;;;;;;44.65;22.55;;;;;;;7.19;86.97;99151.88;5181367;28;20093;-81
2021/04/05 05:49:13;;;;;;;43.50;21.67;;;;;;;7.28;86.55;99161.84;5183978;28;20091;-81
2021/04/05 05:51:55;;;;;;;51.08;22.42;;;;;;;7.26;86.45;99153.28;5165861;28;20026;-80
2021/04/05 05:55:04;;;;;;;44.80;22.40;;;;;;;7.30;86.16;99140.09;5163174;28;20083;-81
2021/04/05 05:57:57;;;;;;;42.70;22.35;;;;;;;7.31;86.98;99135.72;5179797;28;20728;-81
2021/04/05 06:00:33;;;;;;;38.63;22.33;;;;;;;7.28;88.99;99132.44;5183313;28;20555;-81
2021/04/05 06:03:30;;;;;;;42.08;22.23;;;;;;;7.30;89.31;99123.66;5183224;28;20022;-81
2021/04/05 06:06:15;;;;;;;;;;;;;;;7.24;90.16;99136.94;5183826;28;20190;-81
2021/04/05 06:09:07;;;;;;;40.47;21.52;;;;;;;7.12;91.63;99131.44;5195971;28;19914;-80
2021/04/05 06:12:04;;;;;;;41.00;21.17;;;;;;;7.09;92.39;99122.03;5183332;28;20038;-81
2021/04/05 06:14:47;;;;;;;39.97;22.55;;;;;;;7.00;94.33;99127.66;5183639;28;20091;-82
2021/04/05 06:17:34;;;;;;;41.53;21.90;;;;;;;7.02;96.04;99111.97;5185376;28;20056;-80
2021/04/05 06:20:28;;;;;;;46.10;21.92;;;;;;;6.99;96.79;99122.50;5185317;28;20051;-81
2021/04/05 06:23:23;;;;;;;41.65;24.05;;;;;;;6.89;98.25;99105.63;5184087;28;20032;-81
2021/04/05 06:26:03;;;;;;;45.65;24.13;;;;;;;6.78;98.71;99093.13;5186987;28;20030;-81
2021/04/05 06:28:47;;;;;;;45.03;23.88;;;;;;;6.87;98.93;99097.94;5185032;28;20037;-81
2021/04/05 06:31:35;;;;;;;43.50;23.70;;;;;;;6.74;100.00;99101.16;5185338;28;20117;-82
2021/04/05 06:34:20;;;;;;;44.55;23.45;;;;;;;6.84;99.35;99097.22;5184533;28;20531;-82
2021/04/05 06:37:23;;;;;;;37.20;22.27;;;;;;;6.80;99.96;99090.47;5253102;22;20036;-79
2021/04/05 06:40:09;;;;;;;37.88;21.40;;;;;;;6.79;100.00;99083.59;5244348;28;20035;-79
2021/04/05 06:42:58;;;;;;;37.50;21.38;;;;;;;6.78;100.00;99079.31;5244830;28;20017;-79
2021/04/05 06:45:51;;;;;;;44.95;22.27;;;;;;;6.78;100.00;99087.13;5232083;28;20029;-79
2021/04/05 06:48:30;;;;;;;44.60;23.00;;;;;;;6.77;100.00;99069.84;5220860;28;20120;-79
2021/04/05 06:51:29;;;;;;;38.47;21.73;;;;;;;6.80;100.00;99065.34;5224070;28;20033;-79
2021/04/05 06:54:09;;;;;;;39.60;21.33;;;;;;;6.77;100.00;99054.28;5205603;28;20032;-79
2021/04/05 06:56:51;;;;;;;38.28;21.33;;;;;;;6.82;100.00;99058.38;5226645;28;20021;-79
2021/04/05 06:59:31;;;;;;;38.22;21.08;;;;;;;6.77;100.00;99049.09;5219830;28;20039;-79
2021/04/05 07:02:20;;;;;;;38.30;21.70;;;;;;;6.72;100.00;99056.22;5220889;28;20801;-79
2021/04/05 07:05:23;;;;;;;40.63;21.02;;;;;;;6.74;100.00;99054.44;5220529;28;20135;-78
2021/04/05 07:08:32;;;;;;;37.08;21.42;;;;;;;6.73;100.00;99057.94;5221172;28;20025;-79
2021/04/05 07:11:17;;;;;;;35.00;20.98;;;;;;;6.69;100.00;99045.97;5181547;28;20049;-78
2021/04/05 07:14:35;;;;;;;35.50;21.10;;;;;;;6.65;100.00;99044.44;5221927;28;20051;-78
2021/04/05 07:17:17;;;;;;;39.50;20.58;;;;;;;6.71;100.00;99041.56;5218171;28;20067;-78
2021/04/05 07:20:07;;;;;;;33.65;18.90;;;;;;;6.69;100.00;99054.63;5223962;28;20029;-79
2021/04/05 07:22:52;;;;;;;34.90;19.52;;;;;;;6.65;100.00;99047.88;5225234;28;20037;-79
2021/04/05 07:25:29;;;;;;;34.50;19.38;;;;;;;6.66;100.00;99046.97;5220134;28;21018;-79
2021/04/05 07:28:05;;;;;;;34.53;19.30;;;;;;;6.59;100.00;99049.91;5221916;28;20029;-79
2021/04/05 07:30:54;;;;;;;33.47;19.90;;;;;;;6.60;100.00;99057.59;5215551;28;20051;-78
2021/04/05 07:33:41;;;;;;;34.50;20.13;;;;;;;6.64;100.00;99053.13;5221954;28;20029;-78
2021/04/05 07:36:27;;;;;;;34.00;19.80;;;;;;;6.53;100.00;99066.56;5223350;28;20078;-79
2021/04/05 07:39:06;;;;;;;32.78;20.20;;;;;;;6.46;100.00;99067.75;5219639;28;20028;-78
2021/04/05 07:41:51;;;;;;;34.72;19.98;;;;;;;6.51;100.00;99068.41;5223041;28;20032;-79
2021/04/05 07:44:37;;;;;;;32.60;19.65;;;;;;;6.53;100.00;99068.31;5218816;28;20110;-78
2021/04/05 07:47:25;;;;;;;30.98;18.88;;;;;;;6.52;100.00;99075.28;5222146;28;20036;-78
2021/04/05 07:50:05;;;;;;;33.47;20.23;;;;;;;6.49;100.00;99077.16;5219815;28;20032;-79
2021/04/05 07:52:54;;;;;;;26.10;14.02;;;;;;;5.98;100.00;99134.66;5205315;28;20395;-79
2021/04/05 07:55:26;;;;;;;7.28;2.80;;;;;;;4.79;100.00;99159.94;5225246;28;20500;-78
2021/04/05 07:58:15;;;;;;;9.23;3.10;;;;;;;4.52;100.00;99171.22;5220678;28;20033;-78
2021/04/05 08:01:01;;;;;;;4.60;2.20;;;;;;;4.13;100.00;99165.63;5223389;28;20021;-77
2021/04/05 08:03:54;;;;;;;4.50;1.90;;;;;;;3.83;100.00;99166.63;5213344;28;20037;-78
2021/04/05 08:06:32;;;;;;;4.75;2.10;;;;;;;3.93;100.00;99162.84;5225696;28;20068;-78
2021/04/05 08:09:09;;;;;;;4.57;2.50;;;;;;;4.03;100.00;99172.00;5203989;28;20025;-78
2021/04/05 08:12:08;;;;;;;5.15;2.22;;;;;;;4.10;100.00;99173.47;5207327;28;20029;-78
2021/04/05 08:14:57;;;;;;;4.50;2.22;;;;;;;4.10;100.00;99172.66;5218778;28;20518;-78
2021/04/05 08:17:59;;;;;;;7.57;2.58;;;;;;;4.05;100.00;99177.97;5226086;28;20037;-78
2021/04/05 08:20:53;;;;;;;6.63;2.78;;;;;;;4.12;100.00;99179.44;5224937;28;20044;-79
2021/04/05 08:24:00;;;;;;;9.93;4.90;;;;;;;4.18;100.00;99199.94;5230350;28;20037;-79
2021/04/05 08:26:56;;;;;;;5.95;3.30;;;;;;;4.38;100.00;99194.97;5212566;28;20025;-79
2021/04/05 08:29:54;;;;;;;12.98;7.78;;;;;;;4.43;100.00;99203.41;5217996;28;20052;-79
2021/04/05 08:32:36;;;;;;;9.10;5.63;;;;;;;4.42;100.00;99218.97;5213658;28;20028;-79
2021/04/05 08:35:28;;;;;;;11.00;6.85;;;;;;;4.21;100.00;99230.00;5209722;28;20057;-79
2021/04/05 08:38:14;;;;;;;7.93;4.97;;;;;;;4.22;100.00;99229.97;5236757;28;20056;-79
2021/04/05 08:40:51;;;;;;;7.82;4.70;;;;;;;4.11;100.00;99242.38;5218880;28;20028;-79
2021/04/05 08:43:33;;;;;;;9.05;6.03;;;;;;;4.20;100.00;99242.09;5220169;28;20703;-79
2021/04/05 08:46:12;;;;;;;7.50;4.20;;;;;;;4.34;100.00;99241.66;5238743;28;20036;-79
2021/04/05 08:48:46;;;;;;;8.85;4.90;;;;;;;4.18;100.00;99248.19;5218835;28;20029;-79
2021/04/05 08:51:28;;;;;;;10.35;4.90;;;;;;;4.19;100.00;99255.06;5214856;28;20541;-79
2021/04/05 08:54:02;;;;;;;6.40;2.55;;;;;;;4.28;100.00;99239.28;5231866;28;20067;-79
2021/04/05 08:56:51;;;;;;;7.40;3.67;;;;;;;4.35;100.00;99240.75;5229185;28;20020;-79
2021/04/05 08:59:41;;;;;;;6.53;3.97;;;;;;;4.69;100.00;99231.84;5228884;28;20037;-79
2021/04/05 09:02:22;;;;;;;6.68;3.50;;;;;;;4.84;100.00;99230.47;5228391;28;20415;-79
2021/04/05 09:04:55;;;;;;;8.45;4.25;;;;;;;4.93;100.00;99231.00;5210778;28;20024;-79
2021/04/05 09:08:03;;;;;;;6.25;3.30;;;;;;;4.99;100.00;99235.13;5228774;28;20033;-79
2021/04/05 09:10:45;;;;;;;5.15;2.10;;;;;;;5.15;100.00;99244.06;5202495;28;20035;-79
2021/04/05 09:13:31;;;;;;;5.18;1.30;;;;;;;5.04;100.00;99243.56;5226888;28;20533;-79
2021/04/05 09:16:26;;;;;;;5.90;1.90;;;;;;;5.21;100.00;99247.28;5228676;28;20025;-79
2021/04/05 09:19:12;;;;;;;5.95;1.70;;;;;;;5.18;100.00;99246.53;5223088;28;20037;-79
2021/04/05 09:21:55;;;;;;;3.33;1.77;;;;;;;5.00;99.98;99242.84;5220014;28;20048;-79
2021/04/05 09:25:04;;;;;;;7.63;1.65;;;;;;;5.22;100.00;99241.19;5217604;28;20486;-79
2021/04/05 09:27:55;;;;;;;6.20;1.27;;;;;;;5.30;98.46;99252.13;5202741;28;20032;-79
2021/04/05 09:30:43;;;;;;;7.30;2.10;;;;;;;5.11;99.10;99245.91;5218547;28;20033;-79
2021/04/05 09:33:26;;;;;;;7.43;1.33;;;;;;;5.17;100.00;99244.84;5205159;28;20037;-79
2021/04/05 09:36:21;;;;;;;7.07;1.92;;;;;;;5.21;99.57;99252.47;5205811;28;20033;-79
2021/04/05 09:39:44;;;;;;;8.40;1.95;;;;;;;5.24;100.00;99267.88;5199024;28;20095;-79
2021/04/05 09:42:48;;;;;;;3.35;1.45;;;;;;;4.99;100.00;99269.63;5216243;28;20033;-79
2021/04/05 09:45:51;;;;;;;7.03;1.48;;;;;;;4.84;100.00;99280.47;5199098;28;20067;-79
2021/04/05 09:49:00;;;;;;;6.10;1.85;;;;;;;4.92;100.00;99286.25;5120167;28;20043;-79
2021/04/05 09:51:51;;;;;;;5.70;1.58;;;;;;;4.94;96.58;99278.47;5179529;28;20692;-79
2021/04/05 09:54:33;;;;;;;11.07;1.50;;;;;;;4.91;95.26;99276.81;5221577;28;20045;-79
2021/04/05 09:57:09;;;;;;;6.68;1.20;;;;;;;4.89;93.78;99281.19;5220989;28;20025;-79
2021/04/05 09:59:42;;;;;;;;;;;;;;;5.10;95.70;99296.00;5224499;28;20041;-79
2021/04/05 10:02:15;;;;;;;9.60;1.25;;;;;;;4.45;95.27;99292.13;5223084;28;19923;-79
2021/04/05 10:04:47;;;;;;;5.60;1.30;;;;;;;4.60;95.02;99298.56;5221982;28;20040;-79
2021/04/05 10:07:18;;;;;;;5.32;0.88;;;;;;;4.68;95.19;99302.59;5222075;28;20106;-79
2021/04/05 10:09:49;;;;;;;8.32;1.40;;;;;;;4.86;94.13;99302.00;5204771;28;20072;-79
2021/04/05 10:12:23;;;;;;;9.05;1.65;;;;;;;5.00;94.71;99320.47;5222632;28;20042;-79
2021/04/05 10:14:56;;;;;;;6.30;1.30;;;;;;;4.88;93.30;99305.38;5220007;28;20033;-79
2021/04/05 10:17:27;;;;;;;7.88;1.70;;;;;;;4.89;92.77;99312.25;5220269;28;20029;-79
2021/04/05 10:20:04;;;;;;;8.95;1.52;;;;;;;5.23;93.47;99310.22;5220202;28;20053;-79
2021/04/05 10:22:41;;;;;;;8.52;1.40;;;;;;;5.30;93.42;99303.09;5201379;28;20846;-79
2021/04/05 10:25:14;;;;;;;10.60;2.15;;;;;;;5.54;92.10;99305.66;5214411;28;20037;-79
2021/04/05 10:27:46;;;;;;;13.38;1.90;;;;;;;5.18;90.98;99304.31;5222933;28;20118;-78
2021/04/05 10:30:18;;;;;;;10.48;1.60;;;;;;;5.03;92.41;99312.66;5204613;28;20037;-79
2021/04/05 10:32:50;;;;;;;5.68;0.70;;;;;;;3.30;97.26;99343.78;5219427;28;20029;-79
2021/04/05 10:35:25;;;;;;;4.45;1.10;;;;;;;3.22;98.74;99343.16;5220022;28;20044;-78
2021/04/05 10:37:56;;;;;;;;;;;;;;;3.12;97.35;99350.28;5204028;28;20044;-80
2021/04/05 10:40:28;;;;;;;7.57;1.20;;;;;;;3.04;97.50;99361.69;5223534;28;20047;-79
2021/04/05 10:43:06;;;;;;;4.38;0.80;;;;;;;2.96;99.23;99361.88;5214058;28;20814;-80
2021/04/05 10:45:39;;;;;;;5.90;1.00;;;;;;;2.80;100.00;99370.00;5205705;28;20530;-79
2021/04/05 10:48:25;;;;;;;8.10;1.30;;;;;;;2.75;100.00;99371.84;5226177;28;20498;-79
2021/04/05 10:50:59;;;;;;;8.23;1.00;;;;;;;2.95;100.00;99370.50;5210522;28;20055;-80
2021/04/05 10:53:33;;;;;;;11.43;1.33;;;;;;;3.06;100.00;99372.81;5222755;28;20029;-80
2021/04/05 10:56:07;;;;;;;8.13;1.20;;;;;;;3.21;100.00;99382.75;5204671;28;20643;-80
2021/04/05 10:58:47;;;;;;;7.68;1.10;;;;;;;3.63;100.00;99378.16;5205752;28;20041;-79
2021/04/05 11:01:20;;;;;;;9.80;2.75;;;;;;;3.62;98.71;99383.38;5204458;28;20550;-79
2021/04/05 11:03:51;;;;;;;6.22;1.75;;;;;;;3.80;98.23;99391.44;5218962;28;20035;-79
2021/04/05 11:06:23;;;;;;;6.47;1.60;;;;;;;3.85;97.24;99389.59;5205274;28;20564;-79
2021/04/05 11:08:55;;;;;;;5.90;1.23;;;;;;;3.72;98.00;99395.13;5224684;28;20025;-79
2021/04/05 11:11:35;;;;;;;4.15;1.10;;;;;;;3.33;100.00;99413.44;5205391;28;20100;-79
2021/04/05 11:14:11;;;;;;;3.28;0.93;;;;;;;3.03;98.86;99419.34;5218597;28;20025;-79
2021/04/05 11:16:55;;;;;;;1.58;0.70;;;;;;;3.38;97.16;99427.06;5225085;28;20036;-80
2021/04/05 11:19:39;;;;;;;2.30;0.40;;;;;;;3.53;94.35;99418.91;5210621;28;20024;-79
2021/04/05 11:22:18;;;;;;;1.77;0.60;;;;;;;3.37;94.61;99430.53;5206226;28;20041;-79
2021/04/05 11:24:54;;;;;;;1.88;0.52;;;;;;;3.34;94.55;99425.44;5224121;28;20029;-79
2021/04/05 11:27:28;;;;;;;3.33;0.80;;;;;;;3.43;93.79;99440.69;5224356;28;20425;-80
2021/04/05 11:30:04;;;;;;;2.55;0.80;;;;;;;3.65;93.97;99443.53;5207084;28;20025;-79
2021/04/05 11:32:36;;;;;;;2.92;0.60;;;;;;;3.66;92.92;99442.66;5225354;28;20462;-79
2021/04/05 11:35:11;;;;;;;2.78;0.90;;;;;;;3.76;92.81;99440.69;5206943;28;20486;-79
2021/04/05 11:37:43;;;;;;;2.17;0.90;;;;;;;3.66;94.40;99434.91;5206503;28;20075;-80
2021/04/05 11:40:16;;;;;;;2.80;0.77;;;;;;;3.87;93.89;99442.09;5206267;28;20025;-80
2021/04/05 11:42:49;;;;;;;2.97;1.13;;;;;;;4.04;93.10;99447.66;5227223;28;20117;-79
2021/04/05 11:45:31;;;;;;;3.45;0.80;;;;;;;3.98;91.57;99442.63;5204443;28;20855;-80
2021/04/05 11:48:10;;;;;;;2.63;0.60;;;;;;;4.00;91.04;99443.44;5208725;28;20041;-79
2021/04/05 11:50:43;;;;;;;3.53;0.70;;;;;;;4.09;89.17;99435.44;5210226;28;20033;-80
2021/04/05 11:53:32;;;;;;;6.97;0.70;;;;;;;4.20;88.59;99442.88;5227049;28;20033;-80
2021/04/05 11:56:17;;;;;;;4.13;0.90;;;;;;;4.25;88.18;99452.22;5218403;28;20033;-79
2021/04/05 11:58:57;;;;;;;3.45;0.65;;;;;;;4.23;87.15;99447.97;5224613;28;20102;-79
2021/04/05 12:01:36;;;;;;;3.10;0.60;;;;;;;4.23;87.65;99456.56;5200833;28;20039;-80
2021/04/05 12:04:40;;;;;;;3.70;0.80;;;;;;;4.56;87.48;99444.41;5207761;28;20024;-80
2021/04/05 12:07:13;;;;;;;4.75;0.70;;;;;;;4.39;84.10;99444.91;5207269;28;20383;-79
2021/04/05 12:09:47;;;;;;;7.80;1.13;;;;;;;4.30;83.97;99452.91;5208360;28;20028;-79
2021/04/05 12:12:29;;;;;;;4.65;0.80;;;;;;;4.14;85.02;99469.75;5208901;28;20044;-80
2021/04/05 12:15:01;;;;;;;5.88;1.00;;;;;;;3.03;91.46;99523.38;5200742;28;20037;-80
2021/04/05 12:17:32;;;;;;;6.13;0.80;;;;;;;2.01;97.53;99516.94;5214795;28;20120;-79
2021/04/05 12:20:05;;;;;;;5.28;0.90;;;;;;;1.91;99.88;99505.09;5227811;28;20063;-79